sensor_id;sensor_type;location;lat;lon;timestamp;P1;durP1;ratioP1;P2;durP2;ratioP2
6832;SDS011;3454;42.654;23.378;2023-06-10T00:00:43;12.05;;;5.32;;
6832;SDS011;3454;42.654;23.378;2023-06-10T00:03:09;8.07;;;5.70;;
6832;SDS011;3454;42.654;23.378;2023-06-10T00:05:36;9.73;;;6.57;;
6832;SDS011;3454;42.654;23.378;2023-06-10T00:08:03;6.75;;;5.90;;
6832;SDS011;3454;42.654;23.378;2023-06-10T00:10:35;10.25;;;7.00;;
6832;SDS011;3454;42.654;23.378;2023-06-10T00:13:04;10.20;;;6.25;;
6832;SDS011;3454;42.654;23.378;2023-06-10T00:15:32;11.70;;;6.35;;
6832;SDS011;3454;42.654;23.378;2023-06-10T00:17:58;6.90;;;6.05;;
6832;SDS011;3454;42.654;23.378;2023-06-10T00:20:23;10.27;;;6.55;;
6832;SDS011;3454;42.654;23.378;2023-06-10T00:22:50;11.35;;;6.72;;
6832;SDS011;3454;42.654;23.378;2023-06-10T00:25:16;8.90;;;6.68;;
6832;SDS011;3454;42.654;23.378;2023-06-10T00:27:42;8.23;;;6.07;;
6832;SDS011;3454;42.654;23.378;2023-06-10T00:30:07;9.70;;;6.70;;
6832;SDS011;3454;42.654;23.378;2023-06-10T00:32:34;8.75;;;6.40;;
6832;SDS011;3454;42.654;23.378;2023-06-10T00:35:00;9.13;;;6.68;;
6832;SDS011;3454;42.654;23.378;2023-06-10T00:37:26;10.43;;;6.88;;
6832;SDS011;3454;42.654;23.378;2023-06-10T00:39:53;7.97;;;6.38;;
6832;SDS011;3454;42.654;23.378;2023-06-10T00:42:19;8.20;;;6.25;;
6832;SDS011;3454;42.654;23.378;2023-06-10T00:44:44;7.95;;;6.30;;
6832;SDS011;3454;42.654;23.378;2023-06-10T00:47:10;6.97;;;6.22;;
6832;SDS011;3454;42.654;23.378;2023-06-10T00:49:35;9.23;;;6.65;;
6832;SDS011;3454;42.654;23.378;2023-06-10T00:52:02;9.02;;;7.05;;
6832;SDS011;3454;42.654;23.378;2023-06-10T00:54:29;8.23;;;6.47;;
6832;SDS011;3454;42.654;23.378;2023-06-10T00:56:55;12.05;;;7.85;;
6832;SDS011;3454;42.654;23.378;2023-06-10T00:59:21;10.45;;;7.32;;
6832;SDS011;3454;42.654;23.378;2023-06-10T01:01:47;12.70;;;7.57;;
6832;SDS011;3454;42.654;23.378;2023-06-10T01:04:13;10.88;;;8.75;;
6832;SDS011;3454;42.654;23.378;2023-06-10T01:09:31;11.60;;;9.15;;
6832;SDS011;3454;42.654;23.378;2023-06-10T01:12:16;11.73;;;8.05;;
6832;SDS011;3454;42.654;23.378;2023-06-10T01:14:49;10.60;;;9.13;;
6832;SDS011;3454;42.654;23.378;2023-06-10T01:17:16;13.18;;;9.63;;
6832;SDS011;3454;42.654;23.378;2023-06-10T01:19:43;11.65;;;10.20;;
6832;SDS011;3454;42.654;23.378;2023-06-10T01:22:09;16.30;;;10.40;;
6832;SDS011;3454;42.654;23.378;2023-06-10T01:24:35;11.82;;;9.52;;
6832;SDS011;3454;42.654;23.378;2023-06-10T01:27:03;13.30;;;10.30;;
6832;SDS011;3454;42.654;23.378;2023-06-10T01:29:43;12.63;;;10.63;;
6832;SDS011;3454;42.654;23.378;2023-06-10T01:32:18;11.30;;;10.10;;
6832;SDS011;3454;42.654;23.378;2023-06-10T01:34:54;11.52;;;9.85;;
6832;SDS011;3454;42.654;23.378;2023-06-10T01:37:21;14.00;;;10.32;;
6832;SDS011;3454;42.654;23.378;2023-06-10T01:39:51;15.35;;;10.23;;
6832;SDS011;3454;42.654;23.378;2023-06-10T01:42:19;12.15;;;10.05;;
6832;SDS011;3454;42.654;23.378;2023-06-10T01:44:46;14.32;;;10.75;;
6832;SDS011;3454;42.654;23.378;2023-06-10T01:47:11;14.07;;;10.18;;
6832;SDS011;3454;42.654;23.378;2023-06-10T01:49:37;13.02;;;10.65;;
6832;SDS011;3454;42.654;23.378;2023-06-10T01:52:02;12.23;;;9.75;;
6832;SDS011;3454;42.654;23.378;2023-06-10T01:54:28;14.82;;;11.00;;
6832;SDS011;3454;42.654;23.378;2023-06-10T01:56:54;11.65;;;9.55;;
6832;SDS011;3454;42.654;23.378;2023-06-10T01:59:19;12.50;;;10.20;;
6832;SDS011;3454;42.654;23.378;2023-06-10T02:01:44;10.98;;;9.88;;
6832;SDS011;3454;42.654;23.378;2023-06-10T02:04:10;12.10;;;9.18;;
6832;SDS011;3454;42.654;23.378;2023-06-10T02:06:36;11.32;;;8.93;;
6832;SDS011;3454;42.654;23.378;2023-06-10T02:09:02;10.63;;;8.32;;
6832;SDS011;3454;42.654;23.378;2023-06-10T02:11:28;10.43;;;8.88;;
6832;SDS011;3454;42.654;23.378;2023-06-10T02:13:54;10.70;;;8.73;;
6832;SDS011;3454;42.654;23.378;2023-06-10T02:16:20;12.05;;;9.20;;
6832;SDS011;3454;42.654;23.378;2023-06-10T02:18:46;13.68;;;8.73;;
6832;SDS011;3454;42.654;23.378;2023-06-10T02:21:12;13.32;;;9.73;;
6832;SDS011;3454;42.654;23.378;2023-06-10T02:23:37;8.65;;;7.72;;
6832;SDS011;3454;42.654;23.378;2023-06-10T02:26:03;12.15;;;8.60;;
6832;SDS011;3454;42.654;23.378;2023-06-10T02:28:28;9.40;;;8.15;;
6832;SDS011;3454;42.654;23.378;2023-06-10T02:30:54;8.90;;;8.00;;
6832;SDS011;3454;42.654;23.378;2023-06-10T02:33:19;11.88;;;8.50;;
6832;SDS011;3454;42.654;23.378;2023-06-10T02:35:45;9.07;;;8.15;;
6832;SDS011;3454;42.654;23.378;2023-06-10T02:38:10;9.25;;;8.35;;
6832;SDS011;3454;42.654;23.378;2023-06-10T02:40:36;9.57;;;8.57;;
6832;SDS011;3454;42.654;23.378;2023-06-10T02:43:01;10.48;;;7.50;;
6832;SDS011;3454;42.654;23.378;2023-06-10T02:45:27;11.35;;;8.43;;
6832;SDS011;3454;42.654;23.378;2023-06-10T02:47:52;11.80;;;7.72;;
6832;SDS011;3454;42.654;23.378;2023-06-10T02:50:17;13.27;;;7.75;;
6832;SDS011;3454;42.654;23.378;2023-06-10T02:52:43;11.82;;;8.57;;
6832;SDS011;3454;42.654;23.378;2023-06-10T02:55:08;10.55;;;8.25;;
6832;SDS011;3454;42.654;23.378;2023-06-10T02:57:34;9.88;;;7.45;;
6832;SDS011;3454;42.654;23.378;2023-06-10T03:00:00;10.98;;;8.00;;
6832;SDS011;3454;42.654;23.378;2023-06-10T03:02:27;17.13;;;8.98;;
6832;SDS011;3454;42.654;23.378;2023-06-10T03:04:54;13.32;;;7.97;;
6832;SDS011;3454;42.654;23.378;2023-06-10T03:07:20;9.43;;;7.72;;
6832;SDS011;3454;42.654;23.378;2023-06-10T03:09:46;11.80;;;8.43;;
6832;SDS011;3454;42.654;23.378;2023-06-10T03:12:11;9.80;;;8.68;;
6832;SDS011;3454;42.654;23.378;2023-06-10T03:14:37;12.95;;;8.00;;
6832;SDS011;3454;42.654;23.378;2023-06-10T03:17:04;9.45;;;7.68;;
6832;SDS011;3454;42.654;23.378;2023-06-10T03:19:29;11.55;;;8.68;;
6832;SDS011;3454;42.654;23.378;2023-06-10T03:22:08;10.13;;;8.60;;
6832;SDS011;3454;42.654;23.378;2023-06-10T03:24:35;12.65;;;8.07;;
6832;SDS011;3454;42.654;23.378;2023-06-10T03:27:01;12.50;;;8.60;;
6832;SDS011;3454;42.654;23.378;2023-06-10T03:29:29;10.20;;;8.32;;
6832;SDS011;3454;42.654;23.378;2023-06-10T03:31:55;14.10;;;8.23;;
6832;SDS011;3454;42.654;23.378;2023-06-10T03:34:21;12.20;;;8.20;;
6832;SDS011;3454;42.654;23.378;2023-06-10T03:36:48;9.38;;;8.35;;
6832;SDS011;3454;42.654;23.378;2023-06-10T03:39:14;12.35;;;9.13;;
6832;SDS011;3454;42.654;23.378;2023-06-10T03:41:40;12.23;;;9.25;;
6832;SDS011;3454;42.654;23.378;2023-06-10T03:44:06;13.05;;;9.23;;
6832;SDS011;3454;42.654;23.378;2023-06-10T03:46:32;11.13;;;8.98;;
6832;SDS011;3454;42.654;23.378;2023-06-10T03:48:57;10.45;;;8.75;;
6832;SDS011;3454;42.654;23.378;2023-06-10T03:51:25;12.52;;;9.43;;
6832;SDS011;3454;42.654;23.378;2023-06-10T03:53:51;12.05;;;9.43;;
6832;SDS011;3454;42.654;23.378;2023-06-10T03:56:16;11.02;;;8.52;;
6832;SDS011;3454;42.654;23.378;2023-06-10T03:58:42;10.05;;;8.98;;
6832;SDS011;3454;42.654;23.378;2023-06-10T04:01:07;11.52;;;8.65;;
6832;SDS011;3454;42.654;23.378;2023-06-10T04:03:33;9.95;;;7.93;;
6832;SDS011;3454;42.654;23.378;2023-06-10T04:05:58;15.13;;;8.68;;
6832;SDS011;3454;42.654;23.378;2023-06-10T04:08:23;13.25;;;8.73;;
6832;SDS011;3454;42.654;23.378;2023-06-10T04:10:49;10.18;;;9.10;;
6832;SDS011;3454;42.654;23.378;2023-06-10T04:13:14;10.55;;;8.25;;
6832;SDS011;3454;42.654;23.378;2023-06-10T04:15:40;9.70;;;8.25;;
6832;SDS011;3454;42.654;23.378;2023-06-10T04:18:05;10.90;;;8.48;;
6832;SDS011;3454;42.654;23.378;2023-06-10T04:20:31;10.63;;;8.93;;
6832;SDS011;3454;42.654;23.378;2023-06-10T04:22:57;9.93;;;8.20;;
6832;SDS011;3454;42.654;23.378;2023-06-10T04:25:22;11.82;;;8.68;;
6832;SDS011;3454;42.654;23.378;2023-06-10T04:27:49;12.07;;;8.55;;
6832;SDS011;3454;42.654;23.378;2023-06-10T04:30:16;10.52;;;9.05;;
6832;SDS011;3454;42.654;23.378;2023-06-10T04:32:41;10.82;;;8.50;;
6832;SDS011;3454;42.654;23.378;2023-06-10T04:35:07;12.07;;;9.30;;
6832;SDS011;3454;42.654;23.378;2023-06-10T04:37:36;12.70;;;8.88;;
6832;SDS011;3454;42.654;23.378;2023-06-10T04:40:01;10.50;;;8.82;;
6832;SDS011;3454;42.654;23.378;2023-06-10T04:42:27;16.05;;;10.88;;
6832;SDS011;3454;42.654;23.378;2023-06-10T04:44:52;13.05;;;10.38;;
6832;SDS011;3454;42.654;23.378;2023-06-10T04:47:18;12.15;;;9.57;;
6832;SDS011;3454;42.654;23.378;2023-06-10T04:49:43;10.15;;;9.10;;
6832;SDS011;3454;42.654;23.378;2023-06-10T04:52:09;12.15;;;9.18;;
6832;SDS011;3454;42.654;23.378;2023-06-10T04:54:35;11.90;;;8.43;;
6832;SDS011;3454;42.654;23.378;2023-06-10T04:57:00;15.90;;;9.40;;
6832;SDS011;3454;42.654;23.378;2023-06-10T04:59:25;15.05;;;9.60;;
6832;SDS011;3454;42.654;23.378;2023-06-10T05:01:51;14.48;;;9.20;;
6832;SDS011;3454;42.654;23.378;2023-06-10T05:04:16;12.98;;;8.77;;
6832;SDS011;3454;42.654;23.378;2023-06-10T05:06:42;11.20;;;9.40;;
6832;SDS011;3454;42.654;23.378;2023-06-10T05:09:09;14.63;;;10.43;;
6832;SDS011;3454;42.654;23.378;2023-06-10T05:11:34;14.32;;;9.77;;
6832;SDS011;3454;42.654;23.378;2023-06-10T05:14:00;12.82;;;9.50;;
6832;SDS011;3454;42.654;23.378;2023-06-10T05:16:25;10.50;;;9.40;;
6832;SDS011;3454;42.654;23.378;2023-06-10T05:18:50;13.98;;;9.55;;
6832;SDS011;3454;42.654;23.378;2023-06-10T05:21:17;12.35;;;9.50;;
6832;SDS011;3454;42.654;23.378;2023-06-10T05:23:42;16.48;;;9.45;;
6832;SDS011;3454;42.654;23.378;2023-06-10T05:26:07;13.15;;;9.77;;
6832;SDS011;3454;42.654;23.378;2023-06-10T05:28:33;13.23;;;8.95;;
6832;SDS011;3454;42.654;23.378;2023-06-10T05:30:58;11.40;;;9.73;;
6832;SDS011;3454;42.654;23.378;2023-06-10T05:33:23;10.48;;;8.85;;
6832;SDS011;3454;42.654;23.378;2023-06-10T05:35:49;11.05;;;9.80;;
6832;SDS011;3454;42.654;23.378;2023-06-10T05:38:15;12.75;;;8.85;;
6832;SDS011;3454;42.654;23.378;2023-06-10T05:40:40;12.70;;;8.52;;
6832;SDS011;3454;42.654;23.378;2023-06-10T05:43:05;12.15;;;9.70;;
6832;SDS011;3454;42.654;23.378;2023-06-10T05:45:31;11.65;;;9.82;;
6832;SDS011;3454;42.654;23.378;2023-06-10T05:47:56;10.63;;;9.43;;
6832;SDS011;3454;42.654;23.378;2023-06-10T05:50:24;11.88;;;9.95;;
6832;SDS011;3454;42.654;23.378;2023-06-10T05:52:49;14.25;;;9.55;;
6832;SDS011;3454;42.654;23.378;2023-06-10T05:55:15;11.15;;;9.88;;
6832;SDS011;3454;42.654;23.378;2023-06-10T05:57:41;15.10;;;11.57;;
6832;SDS011;3454;42.654;23.378;2023-06-10T06:00:07;16.70;;;12.77;;
6832;SDS011;3454;42.654;23.378;2023-06-10T06:02:33;15.10;;;12.70;;
6832;SDS011;3454;42.654;23.378;2023-06-10T06:04:58;17.20;;;12.00;;
6832;SDS011;3454;42.654;23.378;2023-06-10T06:07:23;15.15;;;12.48;;
6832;SDS011;3454;42.654;23.378;2023-06-10T06:09:49;17.25;;;13.95;;
6832;SDS011;3454;42.654;23.378;2023-06-10T06:12:14;17.40;;;12.93;;
6832;SDS011;3454;42.654;23.378;2023-06-10T06:14:40;18.80;;;12.88;;
6832;SDS011;3454;42.654;23.378;2023-06-10T06:17:05;16.75;;;13.88;;
6832;SDS011;3454;42.654;23.378;2023-06-10T06:19:31;18.30;;;13.98;;
6832;SDS011;3454;42.654;23.378;2023-06-10T06:21:57;14.18;;;12.68;;
6832;SDS011;3454;42.654;23.378;2023-06-10T06:24:22;18.83;;;12.95;;
6832;SDS011;3454;42.654;23.378;2023-06-10T06:26:48;16.40;;;12.48;;
6832;SDS011;3454;42.654;23.378;2023-06-10T06:29:14;14.02;;;12.38;;
6832;SDS011;3454;42.654;23.378;2023-06-10T06:31:39;14.07;;;12.13;;
6832;SDS011;3454;42.654;23.378;2023-06-10T06:34:05;16.42;;;13.02;;
6832;SDS011;3454;42.654;23.378;2023-06-10T06:36:30;16.63;;;12.98;;
6832;SDS011;3454;42.654;23.378;2023-06-10T06:38:56;19.58;;;13.27;;
6832;SDS011;3454;42.654;23.378;2023-06-10T06:41:23;18.42;;;13.77;;
6832;SDS011;3454;42.654;23.378;2023-06-10T06:43:51;15.98;;;11.68;;
6832;SDS011;3454;42.654;23.378;2023-06-10T06:46:16;27.08;;;22.15;;
6832;SDS011;3454;42.654;23.378;2023-06-10T06:48:42;17.00;;;12.48;;
6832;SDS011;3454;42.654;23.378;2023-06-10T06:51:07;18.17;;;13.35;;
6832;SDS011;3454;42.654;23.378;2023-06-10T06:53:32;16.63;;;13.05;;
6832;SDS011;3454;42.654;23.378;2023-06-10T06:55:58;10.38;;;8.95;;
6832;SDS011;3454;42.654;23.378;2023-06-10T06:58:23;9.65;;;7.25;;
6832;SDS011;3454;42.654;23.378;2023-06-10T07:00:49;15.55;;;9.40;;
6832;SDS011;3454;42.654;23.378;2023-06-10T07:03:15;11.85;;;8.80;;
6832;SDS011;3454;42.654;23.378;2023-06-10T07:05:40;10.18;;;8.20;;
6832;SDS011;3454;42.654;23.378;2023-06-10T07:08:06;11.00;;;7.13;;
6832;SDS011;3454;42.654;23.378;2023-06-10T07:10:31;13.15;;;8.38;;
6832;SDS011;3454;42.654;23.378;2023-06-10T07:12:57;12.30;;;8.32;;
6832;SDS011;3454;42.654;23.378;2023-06-10T07:15:23;15.40;;;8.93;;
6832;SDS011;3454;42.654;23.378;2023-06-10T07:17:48;12.80;;;9.13;;
6832;SDS011;3454;42.654;23.378;2023-06-10T07:20:14;12.73;;;9.73;;
6832;SDS011;3454;42.654;23.378;2023-06-10T07:22:40;14.27;;;8.52;;
6832;SDS011;3454;42.654;23.378;2023-06-10T07:25:07;13.32;;;8.23;;
6832;SDS011;3454;42.654;23.378;2023-06-10T07:27:32;13.20;;;8.00;;
6832;SDS011;3454;42.654;23.378;2023-06-10T07:29:57;14.23;;;7.50;;
6832;SDS011;3454;42.654;23.378;2023-06-10T07:32:23;12.18;;;8.40;;
6832;SDS011;3454;42.654;23.378;2023-06-10T07:34:49;9.65;;;6.30;;
6832;SDS011;3454;42.654;23.378;2023-06-10T07:37:15;9.02;;;6.50;;
6832;SDS011;3454;42.654;23.378;2023-06-10T07:39:41;7.80;;;6.28;;
6832;SDS011;3454;42.654;23.378;2023-06-10T07:42:08;10.07;;;6.43;;
6832;SDS011;3454;42.654;23.378;2023-06-10T07:44:33;9.48;;;6.90;;
6832;SDS011;3454;42.654;23.378;2023-06-10T07:46:59;12.73;;;6.80;;
6832;SDS011;3454;42.654;23.378;2023-06-10T07:49:25;9.43;;;6.18;;
6832;SDS011;3454;42.654;23.378;2023-06-10T07:51:50;13.50;;;7.40;;
6832;SDS011;3454;42.654;23.378;2023-06-10T07:54:16;9.18;;;6.28;;
6832;SDS011;3454;42.654;23.378;2023-06-10T07:56:41;7.57;;;5.85;;
6832;SDS011;3454;42.654;23.378;2023-06-10T07:59:06;11.32;;;7.00;;
6832;SDS011;3454;42.654;23.378;2023-06-10T08:01:32;9.32;;;6.50;;
6832;SDS011;3454;42.654;23.378;2023-06-10T08:03:58;9.52;;;6.38;;
6832;SDS011;3454;42.654;23.378;2023-06-10T08:06:23;12.20;;;6.53;;
6832;SDS011;3454;42.654;23.378;2023-06-10T08:08:49;7.78;;;5.45;;
6832;SDS011;3454;42.654;23.378;2023-06-10T08:11:15;6.38;;;4.90;;
6832;SDS011;3454;42.654;23.378;2023-06-10T08:13:40;5.50;;;4.47;;
6832;SDS011;3454;42.654;23.378;2023-06-10T08:16:06;4.30;;;3.88;;
6832;SDS011;3454;42.654;23.378;2023-06-10T08:18:37;6.35;;;4.40;;
6832;SDS011;3454;42.654;23.378;2023-06-10T08:21:03;7.70;;;4.75;;
6832;SDS011;3454;42.654;23.378;2023-06-10T08:23:28;8.52;;;4.25;;
6832;SDS011;3454;42.654;23.378;2023-06-10T08:25:54;6.63;;;3.47;;
6832;SDS011;3454;42.654;23.378;2023-06-10T08:28:19;6.28;;;4.43;;
6832;SDS011;3454;42.654;23.378;2023-06-10T08:30:45;6.25;;;4.03;;
6832;SDS011;3454;42.654;23.378;2023-06-10T08:33:10;7.90;;;4.22;;
6832;SDS011;3454;42.654;23.378;2023-06-10T08:35:35;7.53;;;4.30;;
6832;SDS011;3454;42.654;23.378;2023-06-10T08:38:01;7.50;;;4.25;;
6832;SDS011;3454;42.654;23.378;2023-06-10T08:40:26;5.95;;;4.45;;
6832;SDS011;3454;42.654;23.378;2023-06-10T08:45:27;5.78;;;4.30;;
6832;SDS011;3454;42.654;23.378;2023-06-10T08:47:56;5.15;;;3.50;;
6832;SDS011;3454;42.654;23.378;2023-06-10T08:50:22;4.68;;;3.72;;
6832;SDS011;3454;42.654;23.378;2023-06-10T08:52:50;4.80;;;3.45;;
6832;SDS011;3454;42.654;23.378;2023-06-10T08:55:21;3.83;;;3.28;;
6832;SDS011;3454;42.654;23.378;2023-06-10T08:57:57;3.80;;;3.15;;
6832;SDS011;3454;42.654;23.378;2023-06-10T09:00:24;5.40;;;3.50;;
6832;SDS011;3454;42.654;23.378;2023-06-10T09:02:51;3.95;;;3.30;;
6832;SDS011;3454;42.654;23.378;2023-06-10T09:05:17;8.57;;;3.72;;
6832;SDS011;3454;42.654;23.378;2023-06-10T09:07:42;3.97;;;3.58;;
6832;SDS011;3454;42.654;23.378;2023-06-10T09:10:08;4.68;;;3.20;;
6832;SDS011;3454;42.654;23.378;2023-06-10T09:12:35;3.60;;;3.30;;
6832;SDS011;3454;42.654;23.378;2023-06-10T09:15:01;3.33;;;2.75;;
6832;SDS011;3454;42.654;23.378;2023-06-10T09:17:27;3.08;;;2.65;;
6832;SDS011;3454;42.654;23.378;2023-06-10T09:19:53;3.33;;;3.03;;
6832;SDS011;3454;42.654;23.378;2023-06-10T09:22:22;4.78;;;3.17;;
6832;SDS011;3454;42.654;23.378;2023-06-10T09:24:49;6.75;;;3.40;;
6832;SDS011;3454;42.654;23.378;2023-06-10T09:27:15;5.55;;;3.53;;
6832;SDS011;3454;42.654;23.378;2023-06-10T09:32:12;2.63;;;2.03;;
6832;SDS011;3454;42.654;23.378;2023-06-10T09:34:38;6.07;;;2.30;;
6832;SDS011;3454;42.654;23.378;2023-06-10T09:37:05;3.65;;;2.70;;
6832;SDS011;3454;42.654;23.378;2023-06-10T09:39:31;5.07;;;2.60;;
6832;SDS011;3454;42.654;23.378;2023-06-10T09:41:57;2.88;;;2.22;;
6832;SDS011;3454;42.654;23.378;2023-06-10T09:44:22;2.60;;;2.33;;
6832;SDS011;3454;42.654;23.378;2023-06-10T09:46:50;3.00;;;2.13;;
6832;SDS011;3454;42.654;23.378;2023-06-10T09:49:18;4.05;;;3.13;;
6832;SDS011;3454;42.654;23.378;2023-06-10T09:51:50;5.30;;;2.88;;
6832;SDS011;3454;42.654;23.378;2023-06-10T09:54:16;3.67;;;3.17;;
6832;SDS011;3454;42.654;23.378;2023-06-10T09:56:43;7.35;;;4.10;;
6832;SDS011;3454;42.654;23.378;2023-06-10T09:59:12;6.55;;;3.35;;
6832;SDS011;3454;42.654;23.378;2023-06-10T10:01:37;4.95;;;2.67;;
6832;SDS011;3454;42.654;23.378;2023-06-10T10:04:10;4.22;;;3.30;;
6832;SDS011;3454;42.654;23.378;2023-06-10T10:06:35;4.25;;;3.13;;
6832;SDS011;3454;42.654;23.378;2023-06-10T10:09:02;4.78;;;2.70;;
6832;SDS011;3454;42.654;23.378;2023-06-10T10:11:28;5.05;;;2.97;;
6832;SDS011;3454;42.654;23.378;2023-06-10T10:13:57;8.10;;;3.17;;
6832;SDS011;3454;42.654;23.378;2023-06-10T10:16:30;4.95;;;2.75;;
6832;SDS011;3454;42.654;23.378;2023-06-10T10:19:11;3.40;;;3.10;;
6832;SDS011;3454;42.654;23.378;2023-06-10T10:21:43;3.45;;;2.90;;
6832;SDS011;3454;42.654;23.378;2023-06-10T10:24:16;4.68;;;3.00;;
6832;SDS011;3454;42.654;23.378;2023-06-10T10:26:43;6.13;;;3.45;;
6832;SDS011;3454;42.654;23.378;2023-06-10T10:29:16;5.25;;;3.00;;
6832;SDS011;3454;42.654;23.378;2023-06-10T10:31:53;3.75;;;3.00;;
6832;SDS011;3454;42.654;23.378;2023-06-10T10:34:25;4.60;;;3.00;;
6832;SDS011;3454;42.654;23.378;2023-06-10T10:37:00;4.03;;;2.80;;
6832;SDS011;3454;42.654;23.378;2023-06-10T10:39:26;4.93;;;3.30;;
6832;SDS011;3454;42.654;23.378;2023-06-10T10:41:53;4.53;;;2.97;;
6832;SDS011;3454;42.654;23.378;2023-06-10T10:44:20;4.20;;;3.00;;
6832;SDS011;3454;42.654;23.378;2023-06-10T10:46:49;3.33;;;3.00;;
6832;SDS011;3454;42.654;23.378;2023-06-10T10:49:16;3.13;;;2.83;;
6832;SDS011;3454;42.654;23.378;2023-06-10T10:52:16;3.28;;;2.97;;
6832;SDS011;3454;42.654;23.378;2023-06-10T10:54:36;3.05;;;2.75;;
6832;SDS011;3454;42.654;23.378;2023-06-10T11:05:05;4.50;;;3.28;;
6832;SDS011;3454;42.654;23.378;2023-06-10T11:07:32;4.72;;;3.70;;
6832;SDS011;3454;42.654;23.378;2023-06-10T11:15:13;5.53;;;3.40;;
6832;SDS011;3454;42.654;23.378;2023-06-10T11:20:45;5.30;;;3.42;;
6832;SDS011;3454;42.654;23.378;2023-06-10T11:28:41;3.70;;;3.05;;
6832;SDS011;3454;42.654;23.378;2023-06-10T11:31:31;5.53;;;3.25;;
6832;SDS011;3454;42.654;23.378;2023-06-10T11:34:04;3.90;;;3.17;;
6832;SDS011;3454;42.654;23.378;2023-06-10T11:36:32;4.60;;;3.53;;
6832;SDS011;3454;42.654;23.378;2023-06-10T11:39:08;5.20;;;3.50;;
6832;SDS011;3454;42.654;23.378;2023-06-10T11:41:34;4.10;;;3.47;;
6832;SDS011;3454;42.654;23.378;2023-06-10T11:44:09;3.80;;;3.42;;
6832;SDS011;3454;42.654;23.378;2023-06-10T11:46:38;5.25;;;3.50;;
6832;SDS011;3454;42.654;23.378;2023-06-10T11:49:04;6.25;;;4.05;;
6832;SDS011;3454;42.654;23.378;2023-06-10T11:51:38;5.22;;;3.97;;
6832;SDS011;3454;42.654;23.378;2023-06-10T11:54:05;4.28;;;3.83;;
6832;SDS011;3454;42.654;23.378;2023-06-10T11:56:33;4.60;;;4.10;;
6832;SDS011;3454;42.654;23.378;2023-06-10T11:59:05;3.97;;;3.58;;
6832;SDS011;3454;42.654;23.378;2023-06-10T12:01:43;4.10;;;3.38;;
6832;SDS011;3454;42.654;23.378;2023-06-10T12:04:10;4.18;;;3.78;;
6832;SDS011;3454;42.654;23.378;2023-06-10T12:06:38;7.03;;;3.60;;
6832;SDS011;3454;42.654;23.378;2023-06-10T12:09:04;3.95;;;3.10;;
6832;SDS011;3454;42.654;23.378;2023-06-10T12:11:33;5.03;;;3.25;;
6832;SDS011;3454;42.654;23.378;2023-06-10T12:14:02;3.72;;;3.42;;
6832;SDS011;3454;42.654;23.378;2023-06-10T12:16:28;3.55;;;3.05;;
6832;SDS011;3454;42.654;23.378;2023-06-10T12:19:00;3.25;;;2.95;;
6832;SDS011;3454;42.654;23.378;2023-06-10T12:21:27;3.80;;;3.28;;
6832;SDS011;3454;42.654;23.378;2023-06-10T12:24:06;4.25;;;2.67;;
6832;SDS011;3454;42.654;23.378;2023-06-10T12:26:39;3.72;;;3.17;;
6832;SDS011;3454;42.654;23.378;2023-06-10T12:29:39;4.20;;;2.70;;
6832;SDS011;3454;42.654;23.378;2023-06-10T12:31:59;3.08;;;2.78;;
6832;SDS011;3454;42.654;23.378;2023-06-10T12:34:28;5.70;;;3.70;;
6832;SDS011;3454;42.654;23.378;2023-06-10T12:36:55;3.72;;;3.10;;
6832;SDS011;3454;42.654;23.378;2023-06-10T12:39:21;4.82;;;2.88;;
6832;SDS011;3454;42.654;23.378;2023-06-10T12:41:47;3.55;;;3.25;;
6832;SDS011;3454;42.654;23.378;2023-06-10T12:44:13;4.07;;;2.90;;
6832;SDS011;3454;42.654;23.378;2023-06-10T12:46:39;4.78;;;3.22;;
6832;SDS011;3454;42.654;23.378;2023-06-10T12:49:04;5.80;;;3.28;;
6832;SDS011;3454;42.654;23.378;2023-06-10T12:51:30;4.78;;;3.15;;
6832;SDS011;3454;42.654;23.378;2023-06-10T12:53:56;3.22;;;2.92;;
6832;SDS011;3454;42.654;23.378;2023-06-10T12:56:22;3.80;;;3.20;;
6832;SDS011;3454;42.654;23.378;2023-06-10T12:58:48;7.70;;;3.13;;
6832;SDS011;3454;42.654;23.378;2023-06-10T13:01:14;3.35;;;2.92;;
6832;SDS011;3454;42.654;23.378;2023-06-10T13:03:39;5.85;;;2.95;;
6832;SDS011;3454;42.654;23.378;2023-06-10T13:06:05;3.25;;;2.70;;
6832;SDS011;3454;42.654;23.378;2023-06-10T13:08:32;3.47;;;3.00;;
6832;SDS011;3454;42.654;23.378;2023-06-10T13:10:58;3.33;;;2.83;;
6832;SDS011;3454;42.654;23.378;2023-06-10T13:13:24;6.35;;;3.08;;
6832;SDS011;3454;42.654;23.378;2023-06-10T13:15:50;3.58;;;3.25;;
6832;SDS011;3454;42.654;23.378;2023-06-10T13:18:17;3.72;;;2.78;;
6832;SDS011;3454;42.654;23.378;2023-06-10T13:20:45;3.75;;;2.80;;
6832;SDS011;3454;42.654;23.378;2023-06-10T13:23:10;4.15;;;3.13;;
6832;SDS011;3454;42.654;23.378;2023-06-10T13:25:36;3.00;;;2.72;;
6832;SDS011;3454;42.654;23.378;2023-06-10T13:28:01;3.75;;;2.83;;
6832;SDS011;3454;42.654;23.378;2023-06-10T13:30:27;5.78;;;3.10;;
6832;SDS011;3454;42.654;23.378;2023-06-10T13:32:53;3.05;;;2.72;;
6832;SDS011;3454;42.654;23.378;2023-06-10T13:35:18;5.80;;;3.22;;
6832;SDS011;3454;42.654;23.378;2023-06-10T13:37:44;6.75;;;3.70;;
6832;SDS011;3454;42.654;23.378;2023-06-10T13:40:10;6.00;;;3.40;;
6832;SDS011;3454;42.654;23.378;2023-06-10T13:42:36;4.57;;;3.40;;
6832;SDS011;3454;42.654;23.378;2023-06-10T13:45:05;4.57;;;3.33;;
6832;SDS011;3454;42.654;23.378;2023-06-10T13:47:31;7.38;;;3.90;;
6832;SDS011;3454;42.654;23.378;2023-06-10T13:49:56;5.88;;;3.63;;
6832;SDS011;3454;42.654;23.378;2023-06-10T13:52:22;5.65;;;3.35;;
6832;SDS011;3454;42.654;23.378;2023-06-10T13:54:48;9.48;;;3.85;;
6832;SDS011;3454;42.654;23.378;2023-06-10T13:57:14;5.28;;;3.13;;
6832;SDS011;3454;42.654;23.378;2023-06-10T13:59:40;6.65;;;4.03;;
6832;SDS011;3454;42.654;23.378;2023-06-10T14:02:06;4.40;;;3.85;;
6832;SDS011;3454;42.654;23.378;2023-06-10T14:04:32;6.32;;;4.00;;
6832;SDS011;3454;42.654;23.378;2023-06-10T14:06:57;6.55;;;4.00;;
6832;SDS011;3454;42.654;23.378;2023-06-10T14:09:23;7.18;;;3.67;;
6832;SDS011;3454;42.654;23.378;2023-06-10T14:11:49;4.97;;;3.17;;
6832;SDS011;3454;42.654;23.378;2023-06-10T14:14:15;6.22;;;3.90;;
6832;SDS011;3454;42.654;23.378;2023-06-10T14:16:41;5.38;;;3.63;;
6832;SDS011;3454;42.654;23.378;2023-06-10T14:19:06;6.00;;;3.83;;
6832;SDS011;3454;42.654;23.378;2023-06-10T14:21:32;8.38;;;3.85;;
6832;SDS011;3454;42.654;23.378;2023-06-10T14:23:57;5.20;;;3.47;;
6832;SDS011;3454;42.654;23.378;2023-06-10T14:26:22;5.88;;;4.00;;
6832;SDS011;3454;42.654;23.378;2023-06-10T14:28:49;4.90;;;3.92;;
6832;SDS011;3454;42.654;23.378;2023-06-10T14:31:15;8.43;;;4.07;;
6832;SDS011;3454;42.654;23.378;2023-06-10T14:33:41;3.95;;;3.35;;
6832;SDS011;3454;42.654;23.378;2023-06-10T14:36:08;4.68;;;3.63;;
6832;SDS011;3454;42.654;23.378;2023-06-10T14:38:34;3.70;;;3.40;;
6832;SDS011;3454;42.654;23.378;2023-06-10T14:41:00;6.60;;;4.03;;
6832;SDS011;3454;42.654;23.378;2023-06-10T14:43:25;4.05;;;3.65;;
6832;SDS011;3454;42.654;23.378;2023-06-10T14:45:50;7.88;;;3.70;;
6832;SDS011;3454;42.654;23.378;2023-06-10T14:48:16;5.65;;;3.47;;
6832;SDS011;3454;42.654;23.378;2023-06-10T14:50:41;5.22;;;3.38;;
6832;SDS011;3454;42.654;23.378;2023-06-10T14:53:10;8.35;;;3.70;;
6832;SDS011;3454;42.654;23.378;2023-06-10T14:55:35;5.13;;;3.55;;
6832;SDS011;3454;42.654;23.378;2023-06-10T14:58:01;7.20;;;4.05;;
6832;SDS011;3454;42.654;23.378;2023-06-10T15:00:27;4.75;;;3.58;;
6832;SDS011;3454;42.654;23.378;2023-06-10T15:02:52;3.83;;;3.47;;
6832;SDS011;3454;42.654;23.378;2023-06-10T15:05:20;5.38;;;3.72;;
6832;SDS011;3454;42.654;23.378;2023-06-10T15:07:46;6.13;;;4.25;;
6832;SDS011;3454;42.654;23.378;2023-06-10T15:10:11;8.75;;;5.38;;
6832;SDS011;3454;42.654;23.378;2023-06-10T15:12:37;6.88;;;3.58;;
6832;SDS011;3454;42.654;23.378;2023-06-10T15:15:02;6.75;;;3.95;;
6832;SDS011;3454;42.654;23.378;2023-06-10T15:17:28;7.68;;;3.75;;
6832;SDS011;3454;42.654;23.378;2023-06-10T15:19:54;7.57;;;3.75;;